createdAt,value
2023-05-15T09:28:39.718Z,56.90
2023-05-15T09:31:09.089Z,54.10
2023-05-15T09:38:52.156Z,54.50
2023-05-15T09:41:26.474Z,55.90
2023-05-15T09:43:56.975Z,55.70
2023-05-15T10:01:32.144Z,58.10
2023-05-15T10:07:36.339Z,57.60
2023-05-15T10:10:05.779Z,57.00
2023-05-15T10:38:12.732Z,51.10
2023-05-15T10:40:45.332Z,52.40
2023-05-15T10:43:14.924Z,50.50
2023-05-15T10:45:43.471Z,51.90
2023-05-15T10:48:15.574Z,52.50
2023-05-15T10:50:43.278Z,53.30
2023-05-15T10:53:11.105Z,53.50
2023-05-15T10:55:38.845Z,53.50
2023-05-15T10:58:10.235Z,52.90
2023-05-15T11:00:45.412Z,51.10
2023-05-15T11:03:44.998Z,51.10
2023-05-15T11:06:16.064Z,51.60
2023-05-15T11:08:45.223Z,51.20
2023-05-15T11:11:50.719Z,50.60
2023-05-15T11:14:19.300Z,49.60
2023-05-15T11:16:53.551Z,49.90
2023-05-15T11:19:40.571Z,49.90
2023-05-15T11:22:25.838Z,50.70
2023-05-15T11:25:02.031Z,51.70
2023-05-15T11:27:41.093Z,51.70
2023-05-15T11:30:17.925Z,50.70
2023-05-15T11:32:56.382Z,50.90
2023-05-15T11:35:32.656Z,51.30
2023-05-15T11:38:03.457Z,51.90
2023-05-15T11:40:33.206Z,52.30
2023-05-15T11:43:09.971Z,53.00
2023-05-15T11:45:39.452Z,52.40
2023-05-15T11:48:12.459Z,51.50
2023-05-15T11:50:41.329Z,50.90
2023-05-15T11:53:10.626Z,50.70
2023-05-15T11:55:40.516Z,49.90
2023-05-15T11:58:16.096Z,50.20
2023-05-15T12:00:46.338Z,49.60
2023-05-15T12:03:32.249Z,50.00
2023-05-15T12:06:02.548Z,50.20
2023-05-15T12:08:34.810Z,50.20
2023-05-15T12:11:03.634Z,49.60
2023-05-15T12:13:32.730Z,50.10
2023-05-15T12:16:02.282Z,50.00
2023-05-15T12:18:34.364Z,50.70
2023-05-15T12:21:02.094Z,49.80
2023-05-15T12:23:29.766Z,49.90
2023-05-15T12:26:01.067Z,49.00
2023-05-15T12:28:30.227Z,48.40
2023-05-15T12:30:58.558Z,48.30
2023-05-15T12:33:26.276Z,49.40
2023-05-15T12:35:59.981Z,50.00
2023-05-15T12:38:29.413Z,50.00
2023-05-15T12:40:57.685Z,50.20
2023-05-15T12:43:26.454Z,50.30
2023-05-15T12:45:58.116Z,49.90
2023-05-15T12:48:33.049Z,48.70
2023-05-15T12:51:08.205Z,47.50
2023-05-15T12:53:36.406Z,47.30
2023-05-15T12:56:04.878Z,47.40
2023-05-15T12:58:33.597Z,47.40
2023-05-15T13:01:03.509Z,48.20
2023-05-15T13:03:32.021Z,47.70
2023-05-15T13:06:02.027Z,47.90
2023-05-15T13:08:29.670Z,47.30
2023-05-15T13:10:59.199Z,46.60
2023-05-15T13:13:47.585Z,46.90
2023-05-15T13:16:24.702Z,47.40
2023-05-15T13:18:53.307Z,47.30
2023-05-15T13:21:21.172Z,47.20
2023-05-15T13:23:48.844Z,46.50
2023-05-15T13:26:16.576Z,45.30
2023-05-15T13:28:44.194Z,45.20
2023-05-15T13:31:11.955Z,45.50
2023-05-15T13:33:39.804Z,45.50
2023-05-15T13:36:07.555Z,46.40
2023-05-15T13:38:35.232Z,46.30
2023-05-15T13:41:03.935Z,45.80
2023-05-15T13:43:32.215Z,45.00
2023-05-15T13:46:00.037Z,45.70
2023-05-15T13:48:27.651Z,46.40
2023-05-15T13:50:55.319Z,46.60
2023-05-15T13:53:22.925Z,47.40
2023-05-15T13:55:50.565Z,48.20
2023-05-15T13:58:18.303Z,48.10
2023-05-15T14:00:48.497Z,47.40
2023-05-15T14:03:16.212Z,47.20
2023-05-15T14:05:44.044Z,47.80
2023-05-15T14:08:11.702Z,47.40
2023-05-15T14:10:39.293Z,47.20
2023-05-15T14:13:06.947Z,46.80
2023-05-15T14:15:34.576Z,46.60
2023-05-15T14:18:02.245Z,46.60
2023-05-15T14:20:29.941Z,47.10
2023-05-15T14:22:57.558Z,48.00
2023-05-15T14:25:25.339Z,47.50
2023-05-15T14:27:53.036Z,46.20
2023-05-15T14:30:22.680Z,46.50
2023-05-15T14:32:50.398Z,47.00
2023-05-15T14:35:17.992Z,47.10
2023-05-15T14:37:45.563Z,47.50
2023-05-15T14:40:13.626Z,47.70
2023-05-15T14:42:41.283Z,47.30
2023-05-15T14:45:09.490Z,47.60
2023-05-15T14:47:37.075Z,47.30
2023-05-15T14:50:05.046Z,47.60
2023-05-15T14:52:32.640Z,47.20
2023-05-15T14:55:08.387Z,47.00
2023-05-15T14:57:37.987Z,47.00
2023-05-15T15:00:07.212Z,47.30
2023-05-15T15:02:35.039Z,47.30
2023-05-15T15:05:04.302Z,47.60
2023-05-15T15:07:52.459Z,47.90
2023-05-15T15:10:20.082Z,48.40
2023-05-15T15:12:47.664Z,48.10
2023-05-15T15:15:15.349Z,48.60
2023-05-15T15:17:43.025Z,49.20
2023-05-15T15:20:11.846Z,48.80
2023-05-15T15:22:42.232Z,48.70
2023-05-15T15:25:10.142Z,49.00
2023-05-15T15:27:37.697Z,49.20
2023-05-15T15:30:08.088Z,48.60
2023-05-15T15:32:36.994Z,48.30
2023-05-15T15:37:44.833Z,48.50
2023-05-15T15:40:12.765Z,48.50
2023-05-15T15:42:40.440Z,48.00
2023-05-15T15:45:08.412Z,48.60
2023-05-15T15:47:35.977Z,48.70
2023-05-15T15:50:03.769Z,49.10
2023-05-15T15:52:31.503Z,49.00
2023-05-15T15:54:59.111Z,48.80
2023-05-15T15:57:29.314Z,48.90
2023-05-15T15:59:57.050Z,49.10
2023-05-15T16:02:24.934Z,49.50
2023-05-15T16:04:52.512Z,49.40
2023-05-15T16:07:20.743Z,49.30
2023-05-15T16:09:56.867Z,49.40
2023-05-15T16:12:35.960Z,49.20
2023-05-15T16:15:20.095Z,49.10
2023-05-15T16:17:54.717Z,48.80
2023-05-15T16:20:24.254Z,49.00
2023-05-15T16:22:52.257Z,49.50
2023-05-15T16:25:19.890Z,48.80
2023-05-15T16:27:47.620Z,49.70
2023-05-15T16:30:15.492Z,49.70
2023-05-15T16:32:43.322Z,49.40
2023-05-15T16:35:11.094Z,49.60
2023-05-15T16:37:38.934Z,49.90
2023-05-15T16:40:07.234Z,49.60
2023-05-15T16:42:38.643Z,49.10
2023-05-15T16:45:07.217Z,48.70
2023-05-15T16:47:36.832Z,48.20
2023-05-15T16:50:05.695Z,48.60
2023-05-15T16:52:33.296Z,48.50
2023-05-15T16:55:00.867Z,48.70
2023-05-15T16:57:28.618Z,49.20
2023-05-15T16:59:56.476Z,49.40
2023-05-15T17:02:24.194Z,49.40
2023-05-15T17:04:53.423Z,49.20
2023-05-15T17:07:21.029Z,49.30
2023-05-15T17:09:48.666Z,49.20
2023-05-15T17:12:16.775Z,48.90
2023-05-15T17:14:44.324Z,49.00
2023-05-15T17:17:11.880Z,50.00
2023-05-15T17:19:39.556Z,50.70
2023-05-15T17:22:07.436Z,51.40
2023-05-15T17:24:49.437Z,51.40
2023-05-15T17:27:19.514Z,51.10
2023-05-15T17:29:47.528Z,50.70
2023-05-15T17:32:19.458Z,50.30
2023-05-15T17:34:47.534Z,50.20
2023-05-15T17:37:15.270Z,50.20
2023-05-15T17:39:43.189Z,50.20
2023-05-15T17:42:10.780Z,50.10
2023-05-15T17:44:38.380Z,49.90
2023-05-15T17:47:06.275Z,50.40
2023-05-15T17:49:34.580Z,50.80
2023-05-15T17:52:02.347Z,51.40
2023-05-15T17:54:30.003Z,52.00
2023-05-15T17:56:57.632Z,52.30
2023-05-15T17:59:25.371Z,53.30
2023-05-15T18:01:53.185Z,54.00
2023-05-15T18:04:21.033Z,54.70
2023-05-15T18:06:49.089Z,55.40
2023-05-15T18:09:16.805Z,56.00
2023-05-15T18:11:44.689Z,56.70
2023-05-15T18:14:12.727Z,56.80
2023-05-15T18:16:40.568Z,56.20
2023-05-15T18:19:08.269Z,55.50
2023-05-15T18:21:37.857Z,54.80
2023-05-15T18:24:06.123Z,54.10
2023-05-15T18:26:33.856Z,53.60
2023-05-15T18:29:01.510Z,53.80
2023-05-15T18:31:29.306Z,54.20
2023-05-15T18:33:57.264Z,54.80
2023-05-15T18:36:24.880Z,55.40
2023-05-15T18:38:52.465Z,56.30
2023-05-15T18:41:20.046Z,57.10
2023-05-15T18:43:48.731Z,57.80
2023-05-15T18:46:16.934Z,58.60
2023-05-15T18:48:44.852Z,59.20
2023-05-15T18:51:12.778Z,59.50
2023-05-15T18:53:40.888Z,59.70
2023-05-15T18:56:08.571Z,60.00
2023-05-15T19:31:35.048Z,63.70
